createdAt,value
2023-01-30T00:01:47.290Z,28.60
2023-01-30T00:04:17.214Z,30.07
2023-01-30T00:06:46.512Z,31.67
2023-01-30T00:09:15.615Z,31.57
2023-01-30T00:11:43.895Z,28.47
2023-01-30T00:14:11.536Z,31.93
2023-01-30T00:16:39.364Z,32.00
2023-01-30T00:19:07.277Z,29.80
2023-01-30T00:21:34.987Z,38.57
2023-01-30T00:24:04.363Z,29.90
2023-01-30T00:26:32.083Z,30.43
2023-01-30T00:28:59.818Z,32.07
2023-01-30T00:31:27.488Z,36.27
2023-01-30T00:33:55.357Z,31.37
2023-01-30T00:36:24.608Z,34.60
2023-01-30T00:38:52.593Z,33.37
2023-01-30T00:41:21.764Z,32.30
2023-01-30T00:44:06.903Z,30.93
2023-01-30T00:46:53.208Z,33.30
2023-01-30T00:49:21.894Z,31.70
2023-01-30T00:51:49.726Z,34.33
2023-01-30T00:54:17.449Z,34.70
2023-01-30T00:56:46.453Z,36.37
2023-01-30T00:59:14.321Z,32.90
2023-01-30T01:01:42.332Z,31.73
2023-01-30T01:04:11.782Z,34.33
2023-01-30T01:06:39.793Z,34.87
2023-01-30T01:09:08.204Z,32.67
2023-01-30T01:11:36.952Z,33.90
2023-01-30T01:14:07.210Z,31.47
2023-01-30T01:16:36.568Z,34.20
2023-01-30T01:19:05.463Z,30.97
2023-01-30T01:21:33.183Z,29.70
2023-01-30T01:24:01.406Z,29.47
2023-01-30T01:26:29.354Z,35.17
2023-01-30T01:28:57.675Z,29.47
2023-01-30T01:31:27.009Z,30.27
2023-01-30T01:33:56.876Z,31.10
2023-01-30T01:36:52.123Z,28.30
2023-01-30T01:39:14.147Z,27.20
2023-01-30T01:41:41.903Z,31.17
2023-01-30T01:44:11.107Z,31.57
2023-01-30T01:46:45.164Z,33.87
2023-01-30T01:49:16.421Z,32.23
2023-01-30T01:51:50.620Z,35.40
2023-01-30T01:54:24.415Z,28.17
2023-01-30T01:56:52.643Z,33.90
2023-01-30T01:59:27.123Z,33.70
2023-01-30T02:01:59.080Z,30.63
2023-01-30T02:04:42.841Z,35.33
2023-01-30T02:07:10.692Z,32.43
2023-01-30T02:09:38.833Z,35.00
2023-01-30T02:12:07.070Z,31.83
2023-01-30T02:14:35.928Z,34.00
2023-01-30T02:17:05.129Z,33.47
2023-01-30T02:19:43.567Z,35.07
2023-01-30T02:22:32.751Z,33.63
2023-01-30T02:25:28.232Z,30.17
2023-01-30T02:28:27.738Z,29.60
2023-01-30T02:31:09.069Z,27.57
2023-01-30T02:33:45.174Z,33.83
2023-01-30T02:36:22.234Z,31.67
2023-01-30T02:39:01.605Z,33.50
2023-01-30T02:41:37.841Z,31.70
2023-01-30T02:44:07.621Z,34.10
2023-01-30T02:46:44.959Z,31.63
2023-01-30T02:49:18.266Z,35.13
2023-01-30T02:51:48.491Z,32.60
2023-01-30T02:54:16.957Z,39.30
2023-01-30T02:56:46.688Z,38.07
2023-01-30T02:59:19.429Z,34.67
2023-01-30T03:02:17.741Z,36.97
2023-01-30T03:05:09.706Z,31.03
2023-01-30T03:07:46.413Z,30.90
2023-01-30T03:10:23.744Z,35.07
2023-01-30T03:13:04.000Z,35.57
2023-01-30T03:15:36.202Z,31.30
2023-01-30T03:18:06.027Z,33.60
2023-01-30T03:20:38.150Z,33.33
2023-01-30T03:23:07.408Z,32.27
2023-01-30T03:25:38.244Z,32.13
2023-01-30T03:28:07.981Z,33.50
2023-01-30T03:30:35.730Z,31.23
2023-01-30T03:33:11.327Z,34.37
2023-01-30T03:35:41.298Z,34.07
2023-01-30T03:38:10.315Z,35.93
2023-01-30T03:40:38.004Z,34.97
2023-01-30T03:43:05.689Z,31.67
2023-01-30T03:45:34.542Z,30.00
2023-01-30T03:48:02.156Z,33.83
2023-01-30T03:50:33.033Z,31.50
2023-01-30T03:53:01.687Z,35.07
2023-01-30T03:55:30.013Z,32.83
2023-01-30T03:57:58.451Z,36.07
2023-01-30T04:00:29.468Z,38.53
2023-01-30T04:02:58.879Z,34.03
2023-01-30T04:05:26.853Z,31.70
2023-01-30T04:08:01.247Z,31.63
2023-01-30T04:10:28.961Z,32.27
2023-01-30T04:12:56.827Z,33.93
2023-01-30T04:15:24.737Z,34.03
2023-01-30T04:18:11.184Z,29.97
2023-01-30T04:21:01.174Z,27.50
2023-01-30T04:23:38.848Z,34.77
2023-01-30T04:26:08.788Z,31.30
2023-01-30T04:28:39.174Z,32.23
2023-01-30T04:31:07.882Z,35.50
2023-01-30T04:33:42.782Z,28.93
2023-01-30T04:36:12.360Z,31.03
2023-01-30T04:38:42.330Z,31.40
2023-01-30T04:41:10.003Z,33.50
2023-01-30T04:43:40.952Z,38.17
2023-01-30T04:46:28.473Z,33.20
2023-01-30T04:48:57.068Z,32.43
2023-01-30T04:51:24.822Z,36.10
2023-01-30T04:53:53.817Z,33.17
2023-01-30T04:56:21.569Z,37.37
2023-01-30T04:58:50.673Z,33.43
2023-01-30T05:01:24.524Z,32.40
2023-01-30T05:03:52.927Z,38.23
2023-01-30T05:06:21.387Z,36.73
2023-01-30T05:08:50.177Z,34.73
2023-01-30T05:11:19.689Z,34.90
2023-01-30T05:13:47.824Z,42.23
2023-01-30T05:16:16.705Z,35.50
2023-01-30T05:18:44.951Z,35.73
2023-01-30T05:21:15.242Z,36.83
2023-01-30T05:23:43.357Z,35.60
2023-01-30T05:26:12.802Z,34.40
2023-01-30T05:28:42.054Z,33.10
2023-01-30T05:31:12.218Z,38.23
2023-01-30T05:33:40.590Z,39.67
2023-01-30T05:36:09.052Z,38.20
2023-01-30T05:38:36.675Z,36.73
2023-01-30T05:41:06.487Z,33.40
2023-01-30T05:43:36.189Z,37.10
2023-01-30T05:46:06.908Z,35.83
2023-01-30T05:48:35.221Z,37.33
2023-01-30T05:51:03.008Z,41.07
2023-01-30T05:53:34.459Z,37.63
2023-01-30T05:56:04.316Z,37.50
2023-01-30T05:58:32.981Z,39.80
2023-01-30T06:01:01.960Z,34.70
2023-01-30T06:03:31.343Z,37.87
2023-01-30T06:05:59.139Z,41.10
2023-01-30T06:08:26.780Z,40.50
2023-01-30T06:10:54.411Z,40.70
2023-01-30T06:13:22.099Z,36.87
2023-01-30T06:15:50.110Z,38.40
2023-01-30T06:18:17.884Z,38.67
2023-01-30T06:20:49.958Z,42.10
2023-01-30T06:23:18.185Z,37.20
2023-01-30T06:25:46.630Z,38.57
2023-01-30T06:28:15.783Z,36.33
2023-01-30T06:30:43.965Z,36.33
2023-01-30T06:33:12.092Z,39.97
2023-01-30T06:35:39.766Z,32.17
2023-01-30T06:38:11.261Z,39.60
2023-01-30T06:40:39.132Z,37.73
2023-01-30T06:43:06.949Z,36.13
2023-01-30T06:45:34.756Z,36.97
2023-01-30T06:48:02.362Z,37.00
2023-01-30T06:50:30.826Z,31.83
2023-01-30T06:52:59.978Z,35.57
2023-01-30T06:55:29.358Z,34.03
2023-01-30T06:58:04.652Z,30.80
2023-01-30T07:00:32.966Z,29.60
2023-01-30T07:03:00.826Z,32.20
2023-01-30T07:05:29.772Z,30.47
2023-01-30T07:07:57.536Z,30.73
2023-01-30T07:10:26.186Z,34.67
2023-01-30T07:12:55.116Z,35.33
2023-01-30T07:15:22.750Z,35.23
2023-01-30T07:17:50.388Z,32.27
2023-01-30T07:20:18.310Z,32.53
2023-01-30T07:22:50.714Z,33.53
2023-01-30T07:25:19.190Z,28.70
2023-01-30T07:27:51.936Z,32.07
2023-01-30T07:30:21.340Z,32.43
2023-01-30T07:32:52.350Z,29.47
2023-01-30T07:35:20.196Z,33.40
2023-01-30T07:37:48.491Z,32.07
2023-01-30T07:40:17.009Z,31.30
2023-01-30T07:42:45.304Z,33.83
2023-01-30T07:45:12.972Z,33.20
2023-01-30T07:47:41.915Z,37.10
2023-01-30T07:50:10.562Z,32.07
2023-01-30T07:52:38.229Z,34.10
2023-01-30T07:55:06.607Z,34.87
2023-01-30T07:57:34.267Z,32.03
2023-01-30T08:00:01.933Z,33.03
2023-01-30T08:02:36.591Z,33.07
2023-01-30T08:05:07.006Z,33.60
2023-01-30T08:07:34.796Z,31.90
2023-01-30T08:10:02.671Z,31.97
2023-01-30T08:12:30.594Z,34.07
2023-01-30T08:14:58.295Z,31.80
2023-01-30T08:17:25.951Z,32.73
2023-01-30T08:19:53.671Z,33.00
2023-01-30T08:22:22.711Z,36.63
2023-01-30T08:24:50.337Z,39.90
2023-01-30T08:27:18.326Z,35.37
2023-01-30T08:29:46.229Z,36.90
2023-01-30T08:32:14.899Z,33.63
2023-01-30T08:34:43.522Z,36.93
2023-01-30T08:37:11.152Z,32.43
2023-01-30T08:39:40.107Z,36.77
2023-01-30T08:42:07.754Z,41.40
2023-01-30T08:44:35.407Z,35.53
2023-01-30T08:47:03.922Z,39.17
2023-01-30T08:49:31.577Z,34.30
2023-01-30T08:51:59.198Z,34.60
2023-01-30T08:54:26.952Z,35.87
2023-01-30T08:56:56.167Z,36.00
2023-01-30T08:59:23.788Z,35.60
2023-01-30T09:01:51.442Z,33.97
2023-01-30T09:04:19.156Z,35.43
2023-01-30T09:06:46.768Z,35.80
2023-01-30T09:09:14.386Z,37.70
2023-01-30T09:11:42.068Z,36.93
2023-01-30T09:14:11.043Z,36.20
2023-01-30T09:16:38.638Z,38.33
2023-01-30T09:19:06.238Z,34.73
2023-01-30T09:21:33.892Z,33.03
2023-01-30T09:24:01.561Z,36.87
2023-01-30T09:26:29.329Z,37.20
2023-01-30T09:28:56.937Z,39.83
2023-01-30T09:31:26.231Z,38.13
2023-01-30T09:33:53.845Z,34.53
2023-01-30T09:36:21.796Z,36.57
2023-01-30T09:38:49.375Z,39.53
2023-01-30T09:41:42.016Z,35.60
2023-01-30T09:44:37.012Z,34.07
2023-01-30T09:47:12.385Z,31.63
2023-01-30T09:49:54.895Z,35.57
2023-01-30T09:52:31.779Z,34.60
2023-01-30T09:55:03.415Z,37.00
2023-01-30T09:57:31.559Z,37.13
2023-01-30T10:00:08.321Z,37.10
2023-01-30T10:02:53.084Z,34.47
2023-01-30T10:05:21.039Z,38.50
2023-01-30T10:08:15.699Z,41.83
2023-01-30T10:10:57.983Z,41.83
2023-01-30T10:13:56.673Z,37.83
2023-01-30T10:16:29.168Z,41.07
2023-01-30T10:19:10.752Z,38.57
2023-01-30T10:21:47.624Z,42.47
2023-01-30T10:24:43.799Z,42.87
2023-01-30T10:27:15.824Z,41.73
2023-01-30T10:29:49.564Z,47.53
2023-01-30T10:32:21.207Z,43.83
2023-01-30T10:34:53.915Z,44.47
2023-01-30T10:37:28.471Z,44.77
2023-01-30T10:40:04.150Z,42.47
2023-01-30T10:42:38.999Z,43.87
2023-01-30T10:45:13.119Z,50.23
2023-01-30T10:47:51.131Z,43.63
2023-01-30T10:50:24.382Z,48.57
2023-01-30T10:52:59.239Z,47.87
2023-01-30T10:55:37.743Z,50.33
2023-01-30T10:58:12.453Z,46.93
2023-01-30T11:00:44.385Z,54.70
2023-01-30T11:03:37.534Z,59.50
2023-01-30T11:06:09.490Z,46.47
2023-01-30T11:08:37.279Z,51.30
2023-01-30T11:11:29.493Z,53.53
2023-01-30T11:14:04.384Z,50.60
2023-01-30T11:16:33.089Z,48.53
2023-01-30T11:19:19.416Z,55.90
2023-01-30T11:21:51.830Z,53.23
2023-01-30T11:24:21.118Z,66.90
2023-01-30T11:26:48.935Z,63.90
2023-01-30T11:29:25.969Z,59.90
2023-01-30T11:31:54.839Z,58.90
2023-01-30T11:34:24.335Z,64.40
2023-01-30T11:36:53.355Z,64.77
2023-01-30T11:39:24.371Z,62.10
2023-01-30T11:42:01.959Z,69.73
2023-01-30T11:44:31.358Z,65.10
2023-01-30T11:47:00.279Z,77.03
2023-01-30T11:49:47.341Z,74.23
2023-01-30T11:52:27.550Z,75.70
2023-01-30T11:55:00.927Z,83.07
2023-01-30T11:57:28.758Z,82.30
2023-01-30T11:59:58.978Z,94.33
2023-01-30T12:02:30.723Z,98.67
2023-01-30T12:05:02.004Z,96.70
2023-01-30T12:07:34.180Z,100.77
2023-01-30T12:10:02.066Z,103.07
2023-01-30T12:12:34.592Z,100.53
2023-01-30T12:15:13.190Z,98.10
2023-01-30T12:17:47.458Z,103.80
2023-01-30T12:20:21.998Z,94.87
2023-01-30T12:22:58.963Z,101.67
2023-01-30T12:25:30.194Z,98.87
2023-01-30T12:28:02.909Z,99.07
2023-01-30T12:33:11.720Z,92.53
2023-01-30T12:35:50.807Z,100.80
2023-01-30T12:38:31.020Z,92.90
2023-01-30T12:41:12.124Z,95.10
2023-01-30T12:44:14.243Z,90.43
2023-01-30T12:46:58.464Z,86.20
2023-01-30T12:49:40.705Z,80.73
2023-01-30T12:52:29.926Z,89.57
2023-01-30T12:55:07.818Z,98.13
2023-01-30T12:57:43.105Z,103.57
2023-01-30T13:00:29.758Z,100.70
2023-01-30T13:03:13.121Z,99.47
2023-01-30T13:05:46.615Z,107.90
2023-01-30T13:08:34.644Z,108.37
2023-01-30T13:11:16.570Z,111.57
2023-01-30T13:13:51.963Z,105.57
2023-01-30T13:16:28.817Z,123.03
2023-01-30T13:19:01.105Z,114.17
2023-01-30T13:21:35.855Z,110.07
2023-01-30T13:24:19.027Z,124.13
2023-01-30T13:26:50.082Z,123.87
2023-01-30T13:29:26.547Z,127.37
2023-01-30T13:31:57.296Z,116.93
2023-01-30T13:34:31.567Z,120.03
2023-01-30T13:37:05.093Z,122.53
2023-01-30T13:39:42.266Z,119.00
2023-01-30T13:42:19.032Z,125.27
2023-01-30T13:44:48.996Z,111.63
2023-01-30T13:47:30.725Z,116.27
2023-01-30T13:50:22.547Z,109.00
2023-01-30T13:52:57.399Z,108.60
2023-01-30T13:55:33.623Z,123.43
2023-01-30T13:58:11.085Z,116.53
2023-01-30T14:00:38.810Z,111.87
2023-01-30T14:03:26.347Z,123.17
2023-01-30T14:06:03.340Z,118.40
2023-01-30T14:08:37.054Z,123.23
2023-01-30T14:11:05.027Z,122.67
2023-01-30T14:13:35.731Z,124.27
2023-01-30T14:16:06.193Z,121.43
2023-01-30T14:18:38.547Z,121.07
2023-01-30T14:21:16.676Z,124.70
2023-01-30T14:23:56.068Z,115.07
2023-01-30T14:26:56.944Z,109.83
2023-01-30T14:29:53.241Z,111.07
2023-01-30T14:32:53.331Z,106.33
2023-01-30T14:35:24.088Z,104.13
2023-01-30T14:38:17.177Z,113.40
2023-01-30T14:40:46.978Z,92.97
2023-01-30T14:43:53.344Z,112.37
2023-01-30T14:46:58.453Z,105.07
2023-01-30T14:49:30.732Z,103.23
2023-01-30T14:51:58.414Z,104.47
2023-01-30T14:54:41.762Z,103.33
2023-01-30T14:57:23.948Z,114.40
2023-01-30T15:00:14.229Z,113.93
2023-01-30T15:02:50.448Z,107.33
2023-01-30T15:05:20.755Z,107.73
2023-01-30T15:07:52.642Z,121.73
2023-01-30T15:10:42.156Z,127.40
2023-01-30T15:13:29.263Z,122.30
2023-01-30T15:16:08.789Z,115.93
2023-01-30T15:19:03.092Z,117.80
2023-01-30T15:21:41.118Z,112.07
2023-01-30T15:24:31.168Z,113.27
2023-01-30T15:27:07.170Z,106.17
2023-01-30T15:30:01.613Z,113.77
2023-01-30T15:32:30.912Z,103.03
2023-01-30T15:35:01.438Z,116.53
2023-01-30T15:37:34.377Z,116.87
2023-01-30T15:40:22.555Z,108.03
2023-01-30T15:42:54.094Z,111.93
2023-01-30T15:45:42.613Z,121.90
2023-01-30T15:48:33.810Z,107.93
2023-01-30T15:51:04.387Z,112.67
2023-01-30T15:53:35.814Z,120.97
2023-01-30T15:56:07.762Z,118.47
2023-01-30T15:58:39.058Z,118.97
2023-01-30T16:01:07.565Z,120.37
2023-01-30T16:03:40.764Z,122.03
2023-01-30T16:06:24.338Z,117.30
2023-01-30T16:09:01.293Z,111.13
2023-01-30T16:11:37.842Z,109.70
2023-01-30T16:14:06.559Z,112.83
2023-01-30T16:16:36.223Z,127.20
2023-01-30T16:19:06.706Z,112.80
2023-01-30T16:21:38.039Z,117.10
2023-01-30T16:24:07.828Z,113.87
2023-01-30T16:26:36.758Z,112.30
2023-01-30T16:29:08.951Z,120.60
2023-01-30T16:31:39.774Z,116.73
2023-01-30T16:34:19.146Z,112.60
2023-01-30T16:36:48.776Z,110.03
2023-01-30T16:39:33.793Z,117.63
2023-01-30T16:42:03.469Z,109.57
2023-01-30T16:44:32.449Z,107.00
2023-01-30T16:47:05.400Z,117.27
2023-01-30T16:49:47.295Z,114.17
2023-01-30T16:52:20.510Z,108.40
2023-01-30T16:54:51.194Z,103.87
2023-01-30T16:57:36.731Z,101.70
2023-01-30T17:00:10.005Z,111.57
2023-01-30T17:02:41.857Z,111.50
2023-01-30T17:05:20.248Z,112.90
2023-01-30T17:07:50.115Z,107.80
2023-01-30T17:10:52.846Z,107.53
2023-01-30T17:13:33.457Z,96.70
2023-01-30T17:16:23.664Z,92.07
2023-01-30T17:18:52.509Z,98.10
2023-01-30T17:21:20.900Z,98.07
2023-01-30T17:23:53.848Z,95.07
2023-01-30T17:26:21.758Z,90.53
2023-01-30T17:28:49.415Z,96.90
2023-01-30T17:31:18.313Z,93.07
2023-01-30T17:33:45.963Z,86.03
2023-01-30T17:36:21.254Z,82.00
2023-01-30T17:38:51.518Z,82.77
2023-01-30T17:41:21.743Z,87.37
2023-01-30T17:43:50.845Z,89.63
2023-01-30T17:46:18.936Z,90.30
2023-01-30T17:48:46.651Z,80.70
2023-01-30T17:51:14.427Z,90.23
2023-01-30T17:53:42.624Z,81.07
2023-01-30T17:56:18.666Z,85.90
2023-01-30T17:58:46.515Z,96.27
2023-01-30T18:01:16.190Z,96.53
2023-01-30T18:03:45.036Z,87.20
2023-01-30T18:06:14.878Z,83.80
2023-01-30T18:08:43.100Z,88.97
2023-01-30T18:11:11.901Z,83.37
2023-01-30T18:13:42.388Z,85.97
2023-01-30T18:16:16.333Z,89.17
2023-01-30T18:18:43.996Z,85.70
2023-01-30T18:21:11.746Z,93.80
2023-01-30T18:23:39.351Z,89.20
2023-01-30T18:26:07.054Z,88.40
2023-01-30T18:28:34.655Z,86.17
2023-01-30T18:31:03.771Z,86.00
2023-01-30T18:33:33.090Z,83.20
2023-01-30T18:36:03.808Z,85.00
2023-01-30T18:38:31.552Z,87.37
2023-01-30T18:40:59.285Z,88.33
2023-01-30T18:43:26.930Z,89.90
2023-01-30T18:46:04.608Z,83.83
2023-01-30T18:48:32.812Z,80.33
2023-01-30T18:51:07.956Z,80.30
2023-01-30T18:53:37.175Z,87.37
2023-01-30T18:56:05.740Z,79.70
2023-01-30T18:58:33.460Z,85.40
2023-01-30T19:01:01.512Z,86.57
2023-01-30T19:03:30.543Z,83.97
2023-01-30T19:06:01.576Z,86.37
2023-01-30T19:08:29.245Z,79.93
2023-01-30T19:11:16.879Z,90.07
2023-01-30T19:13:43.654Z,83.70
2023-01-30T19:16:11.357Z,82.13
2023-01-30T19:18:40.495Z,89.30
2023-01-30T19:21:08.186Z,88.87
2023-01-30T19:23:35.975Z,94.97
2023-01-30T19:26:03.754Z,93.57
2023-01-30T19:28:32.640Z,93.83
2023-01-30T19:31:03.014Z,97.23
2023-01-30T19:33:31.073Z,91.63
2023-01-30T19:36:09.989Z,97.63
2023-01-30T19:38:37.755Z,95.30
2023-01-30T19:41:06.026Z,96.70
2023-01-30T19:43:33.702Z,99.17
2023-01-30T19:46:01.854Z,98.77
2023-01-30T19:48:29.556Z,93.53
2023-01-30T19:50:58.030Z,98.30
2023-01-30T19:53:27.549Z,97.10
2023-01-30T19:55:55.424Z,93.87
2023-01-30T19:58:23.095Z,87.10
2023-01-30T20:00:51.091Z,101.67
2023-01-30T20:03:18.752Z,91.83
2023-01-30T20:05:46.440Z,95.50
2023-01-30T20:08:25.389Z,91.07
2023-01-30T20:11:03.609Z,86.27
2023-01-30T20:13:31.284Z,88.77
2023-01-30T20:16:06.161Z,90.90
2023-01-30T20:18:37.284Z,94.43
2023-01-30T20:21:07.305Z,95.37
2023-01-30T20:23:35.039Z,101.17
2023-01-30T20:26:05.858Z,93.53
2023-01-30T20:28:34.459Z,87.10
2023-01-30T20:31:08.548Z,92.77
2023-01-30T20:33:36.291Z,88.60
2023-01-30T20:36:05.752Z,92.47
2023-01-30T20:38:34.626Z,93.40
2023-01-30T20:41:06.169Z,92.00
2023-01-30T20:43:34.786Z,101.00
2023-01-30T20:46:06.865Z,99.60
2023-01-30T20:48:35.348Z,93.47
2023-01-30T20:51:04.507Z,96.47
2023-01-30T20:53:32.329Z,94.17
2023-01-30T20:56:00.272Z,90.20
2023-01-30T20:58:30.214Z,93.67
2023-01-30T21:01:06.726Z,98.70
2023-01-30T21:03:34.697Z,96.10
2023-01-30T21:06:03.133Z,92.10
2023-01-30T21:08:30.901Z,104.60
2023-01-30T21:11:05.590Z,100.63
2023-01-30T21:13:35.262Z,91.87
2023-01-30T21:16:05.230Z,96.33
2023-01-30T21:18:34.098Z,91.17
2023-01-30T21:21:02.541Z,108.00
2023-01-30T21:23:30.684Z,105.13
2023-01-30T21:26:04.157Z,98.07
2023-01-30T21:28:32.008Z,104.07
2023-01-30T21:31:06.599Z,97.60
2023-01-30T21:33:34.472Z,107.03
2023-01-30T21:36:02.798Z,99.23
2023-01-30T21:38:48.263Z,104.70
2023-01-30T21:41:34.919Z,100.00
2023-01-30T21:44:02.878Z,96.37
2023-01-30T21:46:35.693Z,102.17
2023-01-30T21:49:03.642Z,116.50
2023-01-30T21:51:32.045Z,111.57
2023-01-30T21:54:01.819Z,117.90
2023-01-30T21:56:29.511Z,111.60
2023-01-30T21:58:58.476Z,122.23
2023-01-30T22:01:26.916Z,113.63
2023-01-30T22:03:56.454Z,116.00
2023-01-30T22:06:24.048Z,115.90
2023-01-30T22:08:55.360Z,117.17
2023-01-30T22:11:23.387Z,110.40
2023-01-30T22:13:51.440Z,115.17
2023-01-30T22:16:21.480Z,112.47
2023-01-30T22:18:53.177Z,111.43
2023-01-30T22:21:24.406Z,114.13
2023-01-30T22:23:53.895Z,105.47
2023-01-30T22:26:23.219Z,107.03
2023-01-30T22:28:54.713Z,102.20
2023-01-30T22:31:23.094Z,99.67
2023-01-30T22:33:53.541Z,108.10
2023-01-30T22:36:24.805Z,100.80
2023-01-30T22:38:52.583Z,97.20
2023-01-30T22:41:21.981Z,102.30
2023-01-30T22:43:51.323Z,106.87
2023-01-30T22:46:20.271Z,109.30
2023-01-30T22:48:48.334Z,106.80
2023-01-30T22:51:17.534Z,112.33
2023-01-30T22:53:47.714Z,104.10
2023-01-30T22:56:17.431Z,106.23
2023-01-30T22:58:45.743Z,113.87
2023-01-30T23:01:15.462Z,112.30
2023-01-30T23:03:44.706Z,103.83
2023-01-30T23:06:15.180Z,103.30
2023-01-30T23:08:44.953Z,124.53
2023-01-30T23:11:16.408Z,116.93
2023-01-30T23:13:46.442Z,111.13
2023-01-30T23:16:15.604Z,117.87
2023-01-30T23:18:58.726Z,110.03
2023-01-30T23:21:28.750Z,106.57
2023-01-30T23:23:58.427Z,112.90
2023-01-30T23:26:34.344Z,119.27
2023-01-30T23:29:03.338Z,117.57
2023-01-30T23:31:31.487Z,113.07
2023-01-30T23:34:01.032Z,116.30
2023-01-30T23:36:29.365Z,111.57
2023-01-30T23:38:58.899Z,112.73
2023-01-30T23:41:29.652Z,113.90
2023-01-30T23:43:58.462Z,116.60
2023-01-30T23:46:27.600Z,122.43
2023-01-30T23:48:57.017Z,110.37
2023-01-30T23:51:26.461Z,116.53
2023-01-30T23:53:55.069Z,120.17
2023-01-30T23:56:24.408Z,114.07
2023-01-30T23:58:53.723Z,119.87
